sensor_id;sensor_type;location;lat;lon;timestamp;temperature;humidity
27114;DHT22;14648;49.730;8.614;2023-07-31T00:00:49;20.30;49.90
27114;DHT22;14648;49.730;8.614;2023-07-31T00:03:14;20.30;49.30
27114;DHT22;14648;49.730;8.614;2023-07-31T00:05:40;20.40;49.30
27114;DHT22;14648;49.730;8.614;2023-07-31T00:08:06;20.40;49.30
27114;DHT22;14648;49.730;8.614;2023-07-31T00:10:31;20.40;49.20
27114;DHT22;14648;49.730;8.614;2023-07-31T00:12:57;20.30;49.10
27114;DHT22;14648;49.730;8.614;2023-07-31T00:15:22;20.30;49.00
27114;DHT22;14648;49.730;8.614;2023-07-31T00:17:48;20.30;49.00
27114;DHT22;14648;49.730;8.614;2023-07-31T00:20:14;20.30;49.00
27114;DHT22;14648;49.730;8.614;2023-07-31T00:22:39;20.30;48.90
27114;DHT22;14648;49.730;8.614;2023-07-31T00:25:05;20.30;49.00
27114;DHT22;14648;49.730;8.614;2023-07-31T00:27:32;20.30;48.80
27114;DHT22;14648;49.730;8.614;2023-07-31T00:29:58;20.30;48.80
27114;DHT22;14648;49.730;8.614;2023-07-31T00:32:23;20.40;48.80
27114;DHT22;14648;49.730;8.614;2023-07-31T00:34:49;20.40;48.90
27114;DHT22;14648;49.730;8.614;2023-07-31T00:37:15;20.30;48.80
27114;DHT22;14648;49.730;8.614;2023-07-31T00:39:41;20.30;48.90
27114;DHT22;14648;49.730;8.614;2023-07-31T00:42:06;20.30;48.80
27114;DHT22;14648;49.730;8.614;2023-07-31T00:44:32;20.30;48.90
27114;DHT22;14648;49.730;8.614;2023-07-31T00:46:58;20.30;48.80
27114;DHT22;14648;49.730;8.614;2023-07-31T00:49:26;20.30;48.80
27114;DHT22;14648;49.730;8.614;2023-07-31T00:51:52;20.40;48.80
27114;DHT22;14648;49.730;8.614;2023-07-31T00:54:18;20.40;48.80
27114;DHT22;14648;49.730;8.614;2023-07-31T00:56:45;20.40;48.80
27114;DHT22;14648;49.730;8.614;2023-07-31T00:59:13;20.40;48.70
27114;DHT22;14648;49.730;8.614;2023-07-31T01:01:44;20.40;48.70
27114;DHT22;14648;49.730;8.614;2023-07-31T01:04:10;20.40;48.80
27114;DHT22;14648;49.730;8.614;2023-07-31T01:06:44;20.40;48.70
27114;DHT22;14648;49.730;8.614;2023-07-31T01:12:03;20.40;48.90
27114;DHT22;14648;49.730;8.614;2023-07-31T01:14:30;20.40;48.90
27114;DHT22;14648;49.730;8.614;2023-07-31T01:16:55;20.30;49.00
27114;DHT22;14648;49.730;8.614;2023-07-31T01:19:23;20.30;49.10
27114;DHT22;14648;49.730;8.614;2023-07-31T01:24:41;20.30;49.30
27114;DHT22;14648;49.730;8.614;2023-07-31T01:27:41;20.20;49.40
27114;DHT22;14648;49.730;8.614;2023-07-31T01:30:17;20.20;49.50
27114;DHT22;14648;49.730;8.614;2023-07-31T01:32:48;20.20;49.50
27114;DHT22;14648;49.730;8.614;2023-07-31T01:35:15;20.20;49.70
27114;DHT22;14648;49.730;8.614;2023-07-31T01:37:40;20.10;49.80
27114;DHT22;14648;49.730;8.614;2023-07-31T01:40:07;20.10;49.90
27114;DHT22;14648;49.730;8.614;2023-07-31T01:42:34;20.20;49.90
27114;DHT22;14648;49.730;8.614;2023-07-31T01:44:59;20.20;50.00
27114;DHT22;14648;49.730;8.614;2023-07-31T01:47:25;20.20;50.10
27114;DHT22;14648;49.730;8.614;2023-07-31T01:49:51;20.10;50.20
27114;DHT22;14648;49.730;8.614;2023-07-31T01:52:16;20.10;50.20
27114;DHT22;14648;49.730;8.614;2023-07-31T01:54:42;20.10;50.40
27114;DHT22;14648;49.730;8.614;2023-07-31T01:57:08;20.00;50.30
27114;DHT22;14648;49.730;8.614;2023-07-31T01:59:33;20.00;50.30
27114;DHT22;14648;49.730;8.614;2023-07-31T02:01:59;20.00;50.40
27114;DHT22;14648;49.730;8.614;2023-07-31T02:04:25;20.00;50.50
27114;DHT22;14648;49.730;8.614;2023-07-31T02:06:50;20.00;50.50
27114;DHT22;14648;49.730;8.614;2023-07-31T02:09:16;20.00;50.60
27114;DHT22;14648;49.730;8.614;2023-07-31T02:11:41;19.90;50.70
27114;DHT22;14648;49.730;8.614;2023-07-31T02:14:07;19.90;50.90
27114;DHT22;14648;49.730;8.614;2023-07-31T02:16:33;19.80;50.80
27114;DHT22;14648;49.730;8.614;2023-07-31T02:18:59;19.80;50.90
27114;DHT22;14648;49.730;8.614;2023-07-31T02:21:24;19.80;51.10
27114;DHT22;14648;49.730;8.614;2023-07-31T02:23:50;19.80;51.10
27114;DHT22;14648;49.730;8.614;2023-07-31T02:26:16;19.80;51.20
27114;DHT22;14648;49.730;8.614;2023-07-31T02:28:41;19.70;51.30
27114;DHT22;14648;49.730;8.614;2023-07-31T02:31:08;19.70;51.40
27114;DHT22;14648;49.730;8.614;2023-07-31T02:33:34;19.70;51.50
27114;DHT22;14648;49.730;8.614;2023-07-31T02:36:00;19.60;51.50
27114;DHT22;14648;49.730;8.614;2023-07-31T02:38:25;19.70;51.60
27114;DHT22;14648;49.730;8.614;2023-07-31T02:40:51;19.70;51.60
27114;DHT22;14648;49.730;8.614;2023-07-31T02:43:17;19.70;51.60
27114;DHT22;14648;49.730;8.614;2023-07-31T02:45:43;19.60;51.60
27114;DHT22;14648;49.730;8.614;2023-07-31T02:48:08;19.60;51.60
27114;DHT22;14648;49.730;8.614;2023-07-31T02:50:34;19.50;51.60
27114;DHT22;14648;49.730;8.614;2023-07-31T02:53:00;19.50;51.70
27114;DHT22;14648;49.730;8.614;2023-07-31T02:55:26;19.50;51.60
27114;DHT22;14648;49.730;8.614;2023-07-31T02:57:51;19.50;52.30
27114;DHT22;14648;49.730;8.614;2023-07-31T03:00:17;19.50;51.60
27114;DHT22;14648;49.730;8.614;2023-07-31T03:02:43;19.50;51.60
27114;DHT22;14648;49.730;8.614;2023-07-31T03:05:09;19.50;51.70
27114;DHT22;14648;49.730;8.614;2023-07-31T03:07:34;19.50;51.80
27114;DHT22;14648;49.730;8.614;2023-07-31T03:10:00;19.50;52.10
27114;DHT22;14648;49.730;8.614;2023-07-31T03:12:27;19.40;52.10
27114;DHT22;14648;49.730;8.614;2023-07-31T03:14:53;19.40;52.20
27114;DHT22;14648;49.730;8.614;2023-07-31T03:17:18;19.40;52.20
27114;DHT22;14648;49.730;8.614;2023-07-31T03:19:44;19.40;52.30
27114;DHT22;14648;49.730;8.614;2023-07-31T03:22:10;19.40;52.30
27114;DHT22;14648;49.730;8.614;2023-07-31T03:24:35;19.40;52.40
27114;DHT22;14648;49.730;8.614;2023-07-31T03:27:01;19.40;52.40
27114;DHT22;14648;49.730;8.614;2023-07-31T03:29:27;19.30;52.40
27114;DHT22;14648;49.730;8.614;2023-07-31T03:31:52;19.40;52.40
27114;DHT22;14648;49.730;8.614;2023-07-31T03:34:18;19.30;52.40
27114;DHT22;14648;49.730;8.614;2023-07-31T03:36:43;19.30;52.40
27114;DHT22;14648;49.730;8.614;2023-07-31T03:39:09;19.30;52.40
27114;DHT22;14648;49.730;8.614;2023-07-31T03:41:35;19.30;52.50
27114;DHT22;14648;49.730;8.614;2023-07-31T03:44:01;19.30;52.50
27114;DHT22;14648;49.730;8.614;2023-07-31T03:46:27;19.30;52.50
27114;DHT22;14648;49.730;8.614;2023-07-31T03:48:52;19.30;52.50
27114;DHT22;14648;49.730;8.614;2023-07-31T03:51:18;19.30;52.50
27114;DHT22;14648;49.730;8.614;2023-07-31T03:53:44;19.30;52.60
27114;DHT22;14648;49.730;8.614;2023-07-31T03:56:10;19.20;52.50
27114;DHT22;14648;49.730;8.614;2023-07-31T03:58:36;19.30;52.60
27114;DHT22;14648;49.730;8.614;2023-07-31T04:01:02;19.20;52.50
27114;DHT22;14648;49.730;8.614;2023-07-31T04:03:29;19.20;52.70
27114;DHT22;14648;49.730;8.614;2023-07-31T04:05:55;19.20;52.70
27114;DHT22;14648;49.730;8.614;2023-07-31T04:08:22;19.20;52.70
27114;DHT22;14648;49.730;8.614;2023-07-31T04:10:48;19.20;52.70
27114;DHT22;14648;49.730;8.614;2023-07-31T04:13:14;19.20;52.80
27114;DHT22;14648;49.730;8.614;2023-07-31T04:15:40;19.10;52.80
27114;DHT22;14648;49.730;8.614;2023-07-31T04:18:05;19.10;52.80
27114;DHT22;14648;49.730;8.614;2023-07-31T04:20:31;19.10;52.90
27114;DHT22;14648;49.730;8.614;2023-07-31T04:22:57;19.10;52.90
27114;DHT22;14648;49.730;8.614;2023-07-31T04:25:23;19.10;52.90
27114;DHT22;14648;49.730;8.614;2023-07-31T04:27:48;19.10;53.00
27114;DHT22;14648;49.730;8.614;2023-07-31T04:30:14;19.10;53.00
27114;DHT22;14648;49.730;8.614;2023-07-31T04:32:40;19.10;53.00
27114;DHT22;14648;49.730;8.614;2023-07-31T04:35:05;19.10;53.10
27114;DHT22;14648;49.730;8.614;2023-07-31T04:37:31;19.10;53.10
27114;DHT22;14648;49.730;8.614;2023-07-31T04:39:59;19.10;53.10
27114;DHT22;14648;49.730;8.614;2023-07-31T04:42:25;19.10;53.10
27114;DHT22;14648;49.730;8.614;2023-07-31T04:44:51;19.00;53.10
27114;DHT22;14648;49.730;8.614;2023-07-31T04:47:18;19.10;53.10
27114;DHT22;14648;49.730;8.614;2023-07-31T04:49:44;19.00;53.10
27114;DHT22;14648;49.730;8.614;2023-07-31T04:52:10;19.00;53.10
27114;DHT22;14648;49.730;8.614;2023-07-31T04:54:36;19.00;53.80
27114;DHT22;14648;49.730;8.614;2023-07-31T04:57:01;19.10;53.30
27114;DHT22;14648;49.730;8.614;2023-07-31T04:59:27;19.00;53.30
27114;DHT22;14648;49.730;8.614;2023-07-31T05:01:53;19.00;53.20
27114;DHT22;14648;49.730;8.614;2023-07-31T05:04:18;19.10;53.40
27114;DHT22;14648;49.730;8.614;2023-07-31T05:06:44;19.10;53.40
27114;DHT22;14648;49.730;8.614;2023-07-31T05:09:10;19.10;53.40
27114;DHT22;14648;49.730;8.614;2023-07-31T05:11:35;19.10;53.40
27114;DHT22;14648;49.730;8.614;2023-07-31T05:14:01;19.10;53.40
27114;DHT22;14648;49.730;8.614;2023-07-31T05:16:27;19.10;53.40
27114;DHT22;14648;49.730;8.614;2023-07-31T05:18:52;19.10;53.40
27114;DHT22;14648;49.730;8.614;2023-07-31T05:21:18;19.10;53.50
27114;DHT22;14648;49.730;8.614;2023-07-31T05:23:43;19.10;53.60
27114;DHT22;14648;49.730;8.614;2023-07-31T05:26:09;19.10;53.60
27114;DHT22;14648;49.730;8.614;2023-07-31T05:28:35;19.10;53.60
27114;DHT22;14648;49.730;8.614;2023-07-31T05:31:02;19.10;53.60
27114;DHT22;14648;49.730;8.614;2023-07-31T05:33:28;19.10;53.60
27114;DHT22;14648;49.730;8.614;2023-07-31T05:35:54;19.10;53.60
27114;DHT22;14648;49.730;8.614;2023-07-31T05:38:20;19.10;53.70
27114;DHT22;14648;49.730;8.614;2023-07-31T05:40:46;19.10;53.60
27114;DHT22;14648;49.730;8.614;2023-07-31T05:43:12;19.10;53.70
27114;DHT22;14648;49.730;8.614;2023-07-31T05:45:38;19.00;53.60
27114;DHT22;14648;49.730;8.614;2023-07-31T05:48:05;19.10;53.80
27114;DHT22;14648;49.730;8.614;2023-07-31T05:50:31;19.20;53.70
27114;DHT22;14648;49.730;8.614;2023-07-31T05:52:57;19.20;53.80
27114;DHT22;14648;49.730;8.614;2023-07-31T05:55:23;19.10;53.90
27114;DHT22;14648;49.730;8.614;2023-07-31T05:57:52;19.20;53.90
27114;DHT22;14648;49.730;8.614;2023-07-31T06:00:18;19.20;53.90
27114;DHT22;14648;49.730;8.614;2023-07-31T06:02:44;19.20;54.00
27114;DHT22;14648;49.730;8.614;2023-07-31T06:05:09;19.20;53.90
27114;DHT22;14648;49.730;8.614;2023-07-31T06:07:35;19.20;54.00
27114;DHT22;14648;49.730;8.614;2023-07-31T06:10:01;19.20;53.90
27114;DHT22;14648;49.730;8.614;2023-07-31T06:12:34;19.20;53.90
27114;DHT22;14648;49.730;8.614;2023-07-31T06:15:01;19.20;54.00
27114;DHT22;14648;49.730;8.614;2023-07-31T06:17:28;19.20;54.00
27114;DHT22;14648;49.730;8.614;2023-07-31T06:19:54;19.30;54.20
27114;DHT22;14648;49.730;8.614;2023-07-31T06:22:20;19.30;54.10
27114;DHT22;14648;49.730;8.614;2023-07-31T06:24:46;19.30;54.20
27114;DHT22;14648;49.730;8.614;2023-07-31T06:27:12;19.40;54.20
27114;DHT22;14648;49.730;8.614;2023-07-31T06:29:37;19.40;54.10
27114;DHT22;14648;49.730;8.614;2023-07-31T06:32:03;19.40;54.20
27114;DHT22;14648;49.730;8.614;2023-07-31T06:34:29;19.40;54.20
27114;DHT22;14648;49.730;8.614;2023-07-31T06:36:56;19.50;54.20
27114;DHT22;14648;49.730;8.614;2023-07-31T06:39:21;19.50;54.10
27114;DHT22;14648;49.730;8.614;2023-07-31T06:41:47;19.60;54.10
27114;DHT22;14648;49.730;8.614;2023-07-31T06:44:13;19.60;54.30
27114;DHT22;14648;49.730;8.614;2023-07-31T06:46:38;19.60;54.40
27114;DHT22;14648;49.730;8.614;2023-07-31T06:49:04;19.60;54.60
27114;DHT22;14648;49.730;8.614;2023-07-31T06:51:30;19.60;54.90
27114;DHT22;14648;49.730;8.614;2023-07-31T06:53:57;19.50;55.10
27114;DHT22;14648;49.730;8.614;2023-07-31T06:56:23;19.40;55.10
27114;DHT22;14648;49.730;8.614;2023-07-31T06:58:49;19.40;55.40
27114;DHT22;14648;49.730;8.614;2023-07-31T07:01:14;19.40;55.60
27114;DHT22;14648;49.730;8.614;2023-07-31T07:03:40;19.40;55.60
27114;DHT22;14648;49.730;8.614;2023-07-31T07:06:06;19.40;55.50
27114;DHT22;14648;49.730;8.614;2023-07-31T07:08:32;19.40;55.40
27114;DHT22;14648;49.730;8.614;2023-07-31T07:10:57;19.40;55.50
27114;DHT22;14648;49.730;8.614;2023-07-31T07:13:23;19.40;55.40
27114;DHT22;14648;49.730;8.614;2023-07-31T07:15:49;19.40;55.50
27114;DHT22;14648;49.730;8.614;2023-07-31T07:18:16;19.50;55.60
27114;DHT22;14648;49.730;8.614;2023-07-31T07:20:50;19.50;55.60
27114;DHT22;14648;49.730;8.614;2023-07-31T07:23:17;19.60;55.70
27114;DHT22;14648;49.730;8.614;2023-07-31T07:25:44;19.60;55.50
27114;DHT22;14648;49.730;8.614;2023-07-31T07:28:11;19.70;55.60
27114;DHT22;14648;49.730;8.614;2023-07-31T07:30:36;19.80;55.40
27114;DHT22;14648;49.730;8.614;2023-07-31T07:33:02;19.80;55.40
27114;DHT22;14648;49.730;8.614;2023-07-31T07:35:28;19.90;55.40
27114;DHT22;14648;49.730;8.614;2023-07-31T07:37:54;19.90;55.20
27114;DHT22;14648;49.730;8.614;2023-07-31T07:40:20;19.90;55.20
27114;DHT22;14648;49.730;8.614;2023-07-31T07:42:46;20.00;55.20
27114;DHT22;14648;49.730;8.614;2023-07-31T07:45:12;20.00;55.20
27114;DHT22;14648;49.730;8.614;2023-07-31T07:47:40;20.10;55.20
27114;DHT22;14648;49.730;8.614;2023-07-31T07:50:07;20.20;55.20
27114;DHT22;14648;49.730;8.614;2023-07-31T07:52:33;20.20;55.10
27114;DHT22;14648;49.730;8.614;2023-07-31T07:54:58;20.30;55.30
27114;DHT22;14648;49.730;8.614;2023-07-31T07:57:25;20.30;55.10
27114;DHT22;14648;49.730;8.614;2023-07-31T07:59:51;20.40;55.00
27114;DHT22;14648;49.730;8.614;2023-07-31T08:02:17;20.40;55.00
27114;DHT22;14648;49.730;8.614;2023-07-31T08:04:42;20.40;55.00
27114;DHT22;14648;49.730;8.614;2023-07-31T08:07:11;20.40;54.90
27114;DHT22;14648;49.730;8.614;2023-07-31T08:09:40;20.40;55.00
27114;DHT22;14648;49.730;8.614;2023-07-31T08:12:07;20.50;54.90
27114;DHT22;14648;49.730;8.614;2023-07-31T08:14:33;20.50;54.90
27114;DHT22;14648;49.730;8.614;2023-07-31T08:16:58;20.70;54.80
27114;DHT22;14648;49.730;8.614;2023-07-31T08:19:24;20.80;54.70
27114;DHT22;14648;49.730;8.614;2023-07-31T08:21:50;20.90;54.80
27114;DHT22;14648;49.730;8.614;2023-07-31T08:24:16;21.00;54.60
27114;DHT22;14648;49.730;8.614;2023-07-31T08:26:42;21.10;54.50
27114;DHT22;14648;49.730;8.614;2023-07-31T08:29:08;21.20;54.40
27114;DHT22;14648;49.730;8.614;2023-07-31T08:31:33;21.30;54.20
27114;DHT22;14648;49.730;8.614;2023-07-31T08:34:00;21.50;54.20
27114;DHT22;14648;49.730;8.614;2023-07-31T08:36:26;21.60;54.30
27114;DHT22;14648;49.730;8.614;2023-07-31T08:38:52;21.70;54.10
27114;DHT22;14648;49.730;8.614;2023-07-31T08:41:17;21.80;53.80
27114;DHT22;14648;49.730;8.614;2023-07-31T08:43:48;21.90;53.50
27114;DHT22;14648;49.730;8.614;2023-07-31T08:46:15;21.90;53.50
27114;DHT22;14648;49.730;8.614;2023-07-31T08:48:42;21.90;53.50
27114;DHT22;14648;49.730;8.614;2023-07-31T08:51:08;22.00;53.30
27114;DHT22;14648;49.730;8.614;2023-07-31T08:53:34;22.00;53.40
27114;DHT22;14648;49.730;8.614;2023-07-31T08:56:00;22.10;53.40
27114;DHT22;14648;49.730;8.614;2023-07-31T08:58:31;22.20;53.20
27114;DHT22;14648;49.730;8.614;2023-07-31T09:01:00;22.30;52.70
27114;DHT22;14648;49.730;8.614;2023-07-31T09:03:27;22.30;52.60
27114;DHT22;14648;49.730;8.614;2023-07-31T09:05:55;22.30;52.60
27114;DHT22;14648;49.730;8.614;2023-07-31T09:08:22;22.30;52.70
27114;DHT22;14648;49.730;8.614;2023-07-31T09:10:48;22.20;52.60
27114;DHT22;14648;49.730;8.614;2023-07-31T09:13:15;22.20;52.50
27114;DHT22;14648;49.730;8.614;2023-07-31T09:15:44;22.20;52.40
27114;DHT22;14648;49.730;8.614;2023-07-31T09:18:11;22.10;52.50
27114;DHT22;14648;49.730;8.614;2023-07-31T09:20:37;22.10;52.60
27114;DHT22;14648;49.730;8.614;2023-07-31T09:23:08;22.10;52.60
27114;DHT22;14648;49.730;8.614;2023-07-31T09:25:35;22.10;52.70
27114;DHT22;14648;49.730;8.614;2023-07-31T09:28:05;22.10;52.50
27114;DHT22;14648;49.730;8.614;2023-07-31T09:30:47;22.10;52.60
27114;DHT22;14648;49.730;8.614;2023-07-31T09:33:17;22.10;52.30
27114;DHT22;14648;49.730;8.614;2023-07-31T09:35:44;22.10;52.20
27114;DHT22;14648;49.730;8.614;2023-07-31T09:38:12;22.10;51.90
27114;DHT22;14648;49.730;8.614;2023-07-31T09:40:47;22.20;51.90
27114;DHT22;14648;49.730;8.614;2023-07-31T09:43:20;22.20;51.80
27114;DHT22;14648;49.730;8.614;2023-07-31T09:45:46;22.20;51.70
27114;DHT22;14648;49.730;8.614;2023-07-31T09:48:16;22.20;51.80
27114;DHT22;14648;49.730;8.614;2023-07-31T09:50:46;22.20;51.70
27114;DHT22;14648;49.730;8.614;2023-07-31T09:53:13;22.20;51.60
27114;DHT22;14648;49.730;8.614;2023-07-31T09:55:40;22.20;51.60
27114;DHT22;14648;49.730;8.614;2023-07-31T09:58:08;22.20;51.50
27114;DHT22;14648;49.730;8.614;2023-07-31T10:00:35;22.20;51.50
27114;DHT22;14648;49.730;8.614;2023-07-31T10:03:07;22.20;51.60
27114;DHT22;14648;49.730;8.614;2023-07-31T10:05:36;22.20;51.60
27114;DHT22;14648;49.730;8.614;2023-07-31T10:08:04;22.20;51.80
27114;DHT22;14648;49.730;8.614;2023-07-31T10:10:32;22.20;51.70
27114;DHT22;14648;49.730;8.614;2023-07-31T10:12:59;22.20;51.60
27114;DHT22;14648;49.730;8.614;2023-07-31T10:15:25;22.30;51.60
27114;DHT22;14648;49.730;8.614;2023-07-31T10:17:51;22.30;51.40
27114;DHT22;14648;49.730;8.614;2023-07-31T10:20:18;22.50;51.60
27114;DHT22;14648;49.730;8.614;2023-07-31T10:22:44;22.60;51.40
27114;DHT22;14648;49.730;8.614;2023-07-31T10:25:11;22.70;51.40
27114;DHT22;14648;49.730;8.614;2023-07-31T10:27:38;22.80;51.10
27114;DHT22;14648;49.730;8.614;2023-07-31T10:30:11;22.90;50.90
27114;DHT22;14648;49.730;8.614;2023-07-31T10:32:40;23.00;50.70
27114;DHT22;14648;49.730;8.614;2023-07-31T10:35:09;23.10;50.60
27114;DHT22;14648;49.730;8.614;2023-07-31T10:40:07;23.20;50.20
27114;DHT22;14648;49.730;8.614;2023-07-31T10:45:34;23.40;50.30
27114;DHT22;14648;49.730;8.614;2023-07-31T10:48:12;23.50;50.20
27114;DHT22;14648;49.730;8.614;2023-07-31T10:50:50;23.40;49.80
27114;DHT22;14648;49.730;8.614;2023-07-31T10:53:30;23.40;49.90
27114;DHT22;14648;49.730;8.614;2023-07-31T10:55:59;23.30;50.10
27114;DHT22;14648;49.730;8.614;2023-07-31T10:58:28;23.30;49.90
27114;DHT22;14648;49.730;8.614;2023-07-31T11:00:59;23.30;49.80
27114;DHT22;14648;49.730;8.614;2023-07-31T11:03:50;23.30;49.70
27114;DHT22;14648;49.730;8.614;2023-07-31T11:06:19;23.40;49.60
27114;DHT22;14648;49.730;8.614;2023-07-31T11:08:47;23.50;49.70
27114;DHT22;14648;49.730;8.614;2023-07-31T11:11:15;23.70;49.20
27114;DHT22;14648;49.730;8.614;2023-07-31T11:13:47;23.80;48.80
27114;DHT22;14648;49.730;8.614;2023-07-31T11:16:19;23.90;48.30
27114;DHT22;14648;49.730;8.614;2023-07-31T11:18:48;23.80;48.10
27114;DHT22;14648;49.730;8.614;2023-07-31T11:21:19;23.70;48.00
27114;DHT22;14648;49.730;8.614;2023-07-31T11:23:47;23.70;48.00
27114;DHT22;14648;49.730;8.614;2023-07-31T11:26:15;23.60;48.30
27114;DHT22;14648;49.730;8.614;2023-07-31T11:28:42;23.50;48.70
27114;DHT22;14648;49.730;8.614;2023-07-31T11:31:10;23.40;48.80
27114;DHT22;14648;49.730;8.614;2023-07-31T11:33:36;23.30;49.00
27114;DHT22;14648;49.730;8.614;2023-07-31T11:36:02;23.10;49.60
27114;DHT22;14648;49.730;8.614;2023-07-31T11:38:29;23.00;50.10
27114;DHT22;14648;49.730;8.614;2023-07-31T11:40:57;22.80;50.60
27114;DHT22;14648;49.730;8.614;2023-07-31T11:43:25;22.70;51.30
27114;DHT22;14648;49.730;8.614;2023-07-31T11:45:56;22.60;51.60
27114;DHT22;14648;49.730;8.614;2023-07-31T11:48:25;22.50;52.10
27114;DHT22;14648;49.730;8.614;2023-07-31T11:50:53;22.40;52.40
27114;DHT22;14648;49.730;8.614;2023-07-31T11:53:31;22.40;52.70
27114;DHT22;14648;49.730;8.614;2023-07-31T11:56:00;22.30;53.30
27114;DHT22;14648;49.730;8.614;2023-07-31T11:58:28;22.40;53.40
27114;DHT22;14648;49.730;8.614;2023-07-31T12:00:55;22.30;53.60
27114;DHT22;14648;49.730;8.614;2023-07-31T12:03:22;22.30;53.60
27114;DHT22;14648;49.730;8.614;2023-07-31T12:05:48;22.40;53.80
27114;DHT22;14648;49.730;8.614;2023-07-31T12:08:14;22.40;54.00
27114;DHT22;14648;49.730;8.614;2023-07-31T12:10:40;22.50;54.00
27114;DHT22;14648;49.730;8.614;2023-07-31T12:13:07;22.50;53.90
27114;DHT22;14648;49.730;8.614;2023-07-31T12:15:43;22.60;53.90
27114;DHT22;14648;49.730;8.614;2023-07-31T12:18:10;22.60;53.70
27114;DHT22;14648;49.730;8.614;2023-07-31T12:20:41;22.60;53.60
27114;DHT22;14648;49.730;8.614;2023-07-31T12:26:04;22.70;53.50
27114;DHT22;14648;49.730;8.614;2023-07-31T12:28:41;22.60;53.10
27114;DHT22;14648;49.730;8.614;2023-07-31T12:31:18;22.70;52.90
27114;DHT22;14648;49.730;8.614;2023-07-31T12:33:47;22.70;52.60
27114;DHT22;14648;49.730;8.614;2023-07-31T12:36:22;22.70;52.20
27114;DHT22;14648;49.730;8.614;2023-07-31T12:38:50;22.70;52.20
27114;DHT22;14648;49.730;8.614;2023-07-31T12:41:16;22.70;52.10
27114;DHT22;14648;49.730;8.614;2023-07-31T12:43:44;22.70;52.10
27114;DHT22;14648;49.730;8.614;2023-07-31T12:46:10;22.60;51.80
27114;DHT22;14648;49.730;8.614;2023-07-31T12:48:39;22.70;51.90
27114;DHT22;14648;49.730;8.614;2023-07-31T12:51:06;22.60;51.40
27114;DHT22;14648;49.730;8.614;2023-07-31T12:53:34;22.70;51.20
27114;DHT22;14648;49.730;8.614;2023-07-31T12:56:01;22.60;50.90
27114;DHT22;14648;49.730;8.614;2023-07-31T12:58:27;22.70;50.80
27114;DHT22;14648;49.730;8.614;2023-07-31T13:00:53;22.70;50.60
27114;DHT22;14648;49.730;8.614;2023-07-31T13:03:19;22.70;50.50
27114;DHT22;14648;49.730;8.614;2023-07-31T13:05:44;22.70;50.40
27114;DHT22;14648;49.730;8.614;2023-07-31T13:08:10;22.70;51.00
27114;DHT22;14648;49.730;8.614;2023-07-31T13:10:37;22.70;50.20
27114;DHT22;14648;49.730;8.614;2023-07-31T13:13:02;22.70;50.00
27114;DHT22;14648;49.730;8.614;2023-07-31T13:15:28;22.70;50.00
27114;DHT22;14648;49.730;8.614;2023-07-31T13:17:54;22.70;50.00
27114;DHT22;14648;49.730;8.614;2023-07-31T13:20:19;22.70;50.00
27114;DHT22;14648;49.730;8.614;2023-07-31T13:22:45;22.70;50.00
27114;DHT22;14648;49.730;8.614;2023-07-31T13:25:11;22.70;49.80
27114;DHT22;14648;49.730;8.614;2023-07-31T13:27:36;22.80;49.90
27114;DHT22;14648;49.730;8.614;2023-07-31T13:30:02;22.80;49.80
27114;DHT22;14648;49.730;8.614;2023-07-31T13:32:29;22.90;49.90
27114;DHT22;14648;49.730;8.614;2023-07-31T13:34:55;22.90;49.90
27114;DHT22;14648;49.730;8.614;2023-07-31T13:37:21;22.90;49.80
27114;DHT22;14648;49.730;8.614;2023-07-31T13:39:46;22.90;49.90
27114;DHT22;14648;49.730;8.614;2023-07-31T13:42:12;22.90;49.80
27114;DHT22;14648;49.730;8.614;2023-07-31T13:44:39;22.90;49.80
27114;DHT22;14648;49.730;8.614;2023-07-31T13:47:05;22.90;49.80
27114;DHT22;14648;49.730;8.614;2023-07-31T13:49:31;22.90;49.80
27114;DHT22;14648;49.730;8.614;2023-07-31T13:51:57;22.90;49.90
27114;DHT22;14648;49.730;8.614;2023-07-31T13:54:24;22.90;50.00
27114;DHT22;14648;49.730;8.614;2023-07-31T13:56:50;22.90;50.10
27114;DHT22;14648;49.730;8.614;2023-07-31T13:59:15;22.90;50.00
27114;DHT22;14648;49.730;8.614;2023-07-31T14:01:42;22.90;50.10
27114;DHT22;14648;49.730;8.614;2023-07-31T14:04:09;22.90;50.10
27114;DHT22;14648;49.730;8.614;2023-07-31T14:06:34;22.90;50.10
27114;DHT22;14648;49.730;8.614;2023-07-31T14:09:00;22.90;50.70
27114;DHT22;14648;49.730;8.614;2023-07-31T14:11:26;22.90;50.00
27114;DHT22;14648;49.730;8.614;2023-07-31T14:13:52;22.90;50.10
27114;DHT22;14648;49.730;8.614;2023-07-31T14:16:18;22.90;50.10
27114;DHT22;14648;49.730;8.614;2023-07-31T14:18:43;22.90;50.10
27114;DHT22;14648;49.730;8.614;2023-07-31T14:21:11;22.90;50.10
27114;DHT22;14648;49.730;8.614;2023-07-31T14:23:37;22.90;50.10
27114;DHT22;14648;49.730;8.614;2023-07-31T14:26:03;22.90;50.00
27114;DHT22;14648;49.730;8.614;2023-07-31T14:28:29;22.90;50.00
27114;DHT22;14648;49.730;8.614;2023-07-31T14:30:55;22.90;49.90
27114;DHT22;14648;49.730;8.614;2023-07-31T14:33:20;23.00;50.00
27114;DHT22;14648;49.730;8.614;2023-07-31T14:35:46;22.90;50.00
27114;DHT22;14648;49.730;8.614;2023-07-31T14:38:12;22.90;50.00
27114;DHT22;14648;49.730;8.614;2023-07-31T14:40:37;22.90;49.90
27114;DHT22;14648;49.730;8.614;2023-07-31T14:43:04;22.90;50.00
27114;DHT22;14648;49.730;8.614;2023-07-31T14:45:29;23.00;50.00
27114;DHT22;14648;49.730;8.614;2023-07-31T14:47:55;23.00;50.00
27114;DHT22;14648;49.730;8.614;2023-07-31T14:50:21;23.00;50.00
27114;DHT22;14648;49.730;8.614;2023-07-31T14:52:48;23.00;49.90
27114;DHT22;14648;49.730;8.614;2023-07-31T14:55:14;23.00;49.90
27114;DHT22;14648;49.730;8.614;2023-07-31T14:57:39;23.00;50.00
27114;DHT22;14648;49.730;8.614;2023-07-31T15:00:06;23.00;50.10
27114;DHT22;14648;49.730;8.614;2023-07-31T15:02:35;23.10;50.20
27114;DHT22;14648;49.730;8.614;2023-07-31T15:05:04;23.10;50.30
27114;DHT22;14648;49.730;8.614;2023-07-31T15:07:31;23.20;50.30
27114;DHT22;14648;49.730;8.614;2023-07-31T15:09:57;23.20;50.30
27114;DHT22;14648;49.730;8.614;2023-07-31T15:12:23;23.30;50.20
27114;DHT22;14648;49.730;8.614;2023-07-31T15:14:49;23.30;50.10
27114;DHT22;14648;49.730;8.614;2023-07-31T15:17:15;23.30;50.00
27114;DHT22;14648;49.730;8.614;2023-07-31T15:19:41;23.30;49.90
27114;DHT22;14648;49.730;8.614;2023-07-31T15:22:07;23.30;49.90
27114;DHT22;14648;49.730;8.614;2023-07-31T15:24:33;23.30;50.00
27114;DHT22;14648;49.730;8.614;2023-07-31T15:26:58;23.30;49.90
27114;DHT22;14648;49.730;8.614;2023-07-31T15:29:24;23.30;49.90
27114;DHT22;14648;49.730;8.614;2023-07-31T15:31:50;23.30;49.80
27114;DHT22;14648;49.730;8.614;2023-07-31T15:34:16;23.30;49.70
27114;DHT22;14648;49.730;8.614;2023-07-31T15:36:43;23.30;49.70
27114;DHT22;14648;49.730;8.614;2023-07-31T15:39:08;23.30;49.60
27114;DHT22;14648;49.730;8.614;2023-07-31T15:41:35;23.20;49.30